createdAt,value
2019-04-27T00:01:13.780Z,7.67
2019-04-27T00:03:51.759Z,7.87
2019-04-27T00:06:24.943Z,7.80
2019-04-27T00:08:56.435Z,7.60
2019-04-27T00:11:30.955Z,7.60
2019-04-27T00:14:01.021Z,7.60
2019-04-27T00:16:40.455Z,8.17
2019-04-27T00:19:13.164Z,7.97
2019-04-27T00:21:51.011Z,7.27
2019-04-27T00:24:40.374Z,7.33
2019-04-27T00:27:10.564Z,7.53
2019-04-27T00:29:40.411Z,7.07
2019-04-27T00:32:10.395Z,7.53
2019-04-27T00:34:40.397Z,7.03
2019-04-27T00:37:13.503Z,6.80
2019-04-27T00:40:00.104Z,7.17
2019-04-27T00:42:30.074Z,6.23
2019-04-27T00:45:01.023Z,6.83
2019-04-27T00:47:32.746Z,6.50
2019-04-27T00:50:03.587Z,7.03
2019-04-27T00:52:34.874Z,6.13
2019-04-27T00:55:06.267Z,6.93
2019-04-27T00:57:40.790Z,6.70
2019-04-27T01:00:18.288Z,6.13
2019-04-27T01:02:51.097Z,6.83
2019-04-27T01:05:23.133Z,6.87
2019-04-27T01:07:53.702Z,6.50
2019-04-27T01:10:23.848Z,6.93
2019-04-27T01:12:54.144Z,6.53
2019-04-27T01:15:24.132Z,6.23
2019-04-27T01:18:07.023Z,6.83
2019-04-27T01:20:25.529Z,7.00
2019-04-27T01:22:55.373Z,6.77
2019-04-27T01:25:26.943Z,6.50
2019-04-27T01:28:00.932Z,6.30
2019-04-27T01:30:32.439Z,6.67
2019-04-27T01:33:02.289Z,6.93
2019-04-27T01:35:32.229Z,6.77
2019-04-27T01:38:02.083Z,6.77
2019-04-27T01:40:33.250Z,6.43
2019-04-27T01:43:03.156Z,7.00
2019-04-27T01:45:33.007Z,6.43
2019-04-27T01:48:03.036Z,7.13
2019-04-27T01:50:32.964Z,7.00
2019-04-27T01:53:02.895Z,6.63
2019-04-27T01:55:33.689Z,7.70
2019-04-27T01:58:03.787Z,7.17
2019-04-27T02:00:41.787Z,7.07
2019-04-27T02:03:13.364Z,6.90
2019-04-27T02:05:49.275Z,7.40
2019-04-27T02:08:19.659Z,7.23
2019-04-27T02:10:49.797Z,7.43
2019-04-27T02:13:20.134Z,7.00
2019-04-27T02:15:50.043Z,7.60
2019-04-27T02:18:19.985Z,7.37
2019-04-27T02:20:49.969Z,7.23
2019-04-27T02:23:19.832Z,7.10
2019-04-27T02:25:49.787Z,6.83
2019-04-27T02:28:26.995Z,7.40
2019-04-27T02:31:09.842Z,7.40
2019-04-27T02:33:46.770Z,7.00
2019-04-27T02:36:16.604Z,7.30
2019-04-27T02:38:49.066Z,6.60
2019-04-27T02:41:20.515Z,6.47
2019-04-27T02:43:55.190Z,6.90
2019-04-27T02:46:25.123Z,7.37
2019-04-27T02:49:00.067Z,6.67
2019-04-27T02:51:36.930Z,6.50
2019-04-27T02:54:06.792Z,6.80
2019-04-27T02:56:36.717Z,6.70
2019-04-27T02:59:06.656Z,7.67
2019-04-27T03:01:43.609Z,5.97
2019-04-27T03:04:10.733Z,6.67
2019-04-27T03:06:40.723Z,6.90
2019-04-27T03:09:10.662Z,7.10
2019-04-27T03:11:40.715Z,7.20
2019-04-27T03:14:28.248Z,6.47
2019-04-27T03:16:51.543Z,6.90
2019-04-27T03:19:35.333Z,7.13
2019-04-27T03:22:12.985Z,7.07
2019-04-27T03:25:01.397Z,7.03
2019-04-27T03:27:33.015Z,6.90
2019-04-27T03:30:03.093Z,7.20
2019-04-27T03:32:33.083Z,6.80
2019-04-27T03:35:03.766Z,6.73
2019-04-27T03:37:34.122Z,6.70
2019-04-27T03:40:10.104Z,6.30
2019-04-27T03:42:41.409Z,6.60
2019-04-27T03:45:11.486Z,7.20
2019-04-27T03:47:42.725Z,6.97
2019-04-27T03:50:14.326Z,6.90
2019-04-27T03:52:51.608Z,7.17
2019-04-27T03:55:23.206Z,6.97
2019-04-27T03:58:01.028Z,6.10
2019-04-27T04:00:33.633Z,6.23
2019-04-27T04:03:03.484Z,6.83
2019-04-27T04:05:33.666Z,6.40
2019-04-27T04:08:04.262Z,7.40
2019-04-27T04:10:35.818Z,6.77
2019-04-27T04:13:07.480Z,7.27
2019-04-27T04:15:44.766Z,6.50
2019-04-27T04:18:14.690Z,6.90
2019-04-27T04:20:45.975Z,6.63
2019-04-27T04:23:15.901Z,6.37
2019-04-27T04:25:45.827Z,6.30
2019-04-27T04:28:15.742Z,6.50
2019-04-27T04:30:46.680Z,6.37
2019-04-27T04:33:20.198Z,6.00
2019-04-27T04:35:49.852Z,6.93
2019-04-27T04:38:20.766Z,6.10
2019-04-27T04:40:54.994Z,5.97
2019-04-27T04:43:29.297Z,6.40
2019-04-27T04:46:16.587Z,5.83
2019-04-27T04:48:46.506Z,6.40
2019-04-27T04:51:16.443Z,6.07
2019-04-27T04:53:46.378Z,6.10
2019-04-27T04:56:16.519Z,5.87
2019-04-27T04:58:46.392Z,5.97
2019-04-27T05:01:16.317Z,6.37
2019-04-27T05:03:46.256Z,5.93
2019-04-27T05:06:16.374Z,6.07
2019-04-27T05:08:46.478Z,5.50
2019-04-27T05:11:16.419Z,5.17
2019-04-27T05:13:46.418Z,5.50
2019-04-27T05:16:16.346Z,5.50
2019-04-27T05:18:46.298Z,5.70
2019-04-27T05:21:18.552Z,6.07
2019-04-27T05:23:48.769Z,6.10
2019-04-27T05:26:18.983Z,6.10
2019-04-27T05:28:50.544Z,6.50
2019-04-27T05:31:20.460Z,5.53
2019-04-27T05:33:50.398Z,6.73
2019-04-27T05:36:20.993Z,5.90
2019-04-27T05:38:50.865Z,5.70
2019-04-27T05:41:22.207Z,6.13
2019-04-27T05:43:59.189Z,5.73
2019-04-27T05:46:39.702Z,6.07
2019-04-27T05:49:11.782Z,6.43
2019-04-27T05:51:42.104Z,5.90
2019-04-27T05:54:12.173Z,6.23
2019-04-27T05:56:42.172Z,6.27
2019-04-27T05:59:14.599Z,5.63
2019-04-27T06:01:43.747Z,6.13
2019-04-27T06:04:13.807Z,6.30
2019-04-27T06:06:43.720Z,6.00
2019-04-27T06:09:13.589Z,6.20
2019-04-27T06:11:43.600Z,6.07
2019-04-27T06:14:13.439Z,6.03
2019-04-27T06:16:43.300Z,6.20
2019-04-27T06:19:13.229Z,6.13
2019-04-27T06:21:43.298Z,5.47
2019-04-27T06:24:13.426Z,5.80
2019-04-27T06:26:43.354Z,5.50
2019-04-27T06:29:15.624Z,5.90
2019-04-27T06:31:46.916Z,5.80
2019-04-27T06:34:16.837Z,5.53
2019-04-27T06:36:48.589Z,5.57
2019-04-27T06:39:20.395Z,5.83
2019-04-27T06:41:50.180Z,5.70
2019-04-27T06:44:20.177Z,5.37
2019-04-27T06:46:50.113Z,5.63
2019-04-27T06:49:19.947Z,5.90
2019-04-27T06:51:50.019Z,5.97
2019-04-27T06:54:21.429Z,5.37
2019-04-27T06:56:51.544Z,5.60
2019-04-27T06:59:21.374Z,5.73
2019-04-27T07:01:51.301Z,5.80
2019-04-27T07:04:21.316Z,5.27
2019-04-27T07:06:55.925Z,5.30
2019-04-27T07:09:22.795Z,5.60
2019-04-27T07:11:52.648Z,4.97
2019-04-27T07:14:22.596Z,5.00
2019-04-27T07:16:52.499Z,5.30
2019-04-27T07:19:22.430Z,4.37
2019-04-27T07:21:52.348Z,5.00
2019-04-27T07:24:23.273Z,4.43
2019-04-27T07:26:53.135Z,4.77
2019-04-27T07:29:23.229Z,5.03
2019-04-27T07:31:53.343Z,4.80
2019-04-27T07:34:23.324Z,4.20
2019-04-27T07:36:53.164Z,4.43
2019-04-27T07:39:23.033Z,4.40
2019-04-27T07:41:52.972Z,3.73
2019-04-27T07:44:24.446Z,4.20
2019-04-27T07:47:12.611Z,4.17
2019-04-27T07:49:42.528Z,4.30
2019-04-27T07:52:12.888Z,4.33
2019-04-27T07:54:42.929Z,3.93
2019-04-27T07:57:13.011Z,4.10
2019-04-27T07:59:42.961Z,4.03
2019-04-27T08:02:12.899Z,4.30
2019-04-27T08:04:42.777Z,4.27
2019-04-27T08:07:12.784Z,4.00
2019-04-27T08:09:42.720Z,3.60
2019-04-27T08:12:12.627Z,3.60
2019-04-27T08:14:42.503Z,3.70
2019-04-27T08:17:12.497Z,4.10
2019-04-27T08:19:42.360Z,3.33
2019-04-27T08:22:12.228Z,4.13
2019-04-27T08:24:42.196Z,3.63
2019-04-27T08:27:23.002Z,3.70
2019-04-27T08:29:58.794Z,3.53
2019-04-27T08:32:33.238Z,3.40
2019-04-27T08:35:03.840Z,3.30
2019-04-27T08:37:33.717Z,3.17
2019-04-27T08:40:05.987Z,3.00
2019-04-27T08:42:35.889Z,3.17
2019-04-27T08:45:07.044Z,3.30
2019-04-27T08:47:36.918Z,3.00
2019-04-27T08:50:08.984Z,3.57
2019-04-27T08:52:39.367Z,3.10
2019-04-27T08:55:10.552Z,3.10
2019-04-27T08:57:40.389Z,3.07
2019-04-27T09:00:10.693Z,2.97
2019-04-27T09:02:46.887Z,3.30
2019-04-27T09:05:12.552Z,2.97
2019-04-27T09:07:50.125Z,3.00
2019-04-27T09:10:25.160Z,3.07
2019-04-27T09:13:02.452Z,3.10
2019-04-27T09:15:39.119Z,2.50
2019-04-27T09:18:09.706Z,2.43
2019-04-27T09:20:41.284Z,2.77
2019-04-27T09:23:11.231Z,2.70
2019-04-27T09:25:41.130Z,2.73
2019-04-27T09:28:10.974Z,2.83
2019-04-27T09:30:40.996Z,2.70
2019-04-27T09:33:10.856Z,2.73
2019-04-27T09:35:40.835Z,2.63
2019-04-27T09:38:10.764Z,2.80
2019-04-27T09:40:41.143Z,2.80
2019-04-27T09:43:11.373Z,2.73
2019-04-27T09:45:41.870Z,2.50
2019-04-27T09:48:11.876Z,3.57
2019-04-27T09:50:41.786Z,3.13
2019-04-27T09:53:11.730Z,2.57
2019-04-27T09:55:41.644Z,2.57
2019-04-27T09:58:11.515Z,2.60
2019-04-27T10:00:41.508Z,2.37
2019-04-27T10:03:11.365Z,1.80
2019-04-27T10:05:41.291Z,1.90
2019-04-27T10:08:11.155Z,1.57
2019-04-27T10:10:41.006Z,1.53
2019-04-27T10:13:11.020Z,1.60
2019-04-27T10:15:41.019Z,1.73
2019-04-27T10:18:10.932Z,1.60
2019-04-27T10:20:41.772Z,1.40
2019-04-27T10:23:11.629Z,1.50
2019-04-27T10:25:41.558Z,1.20
2019-04-27T10:28:11.448Z,1.20
2019-04-27T10:30:41.392Z,1.13
2019-04-27T10:33:11.243Z,1.30
2019-04-27T10:35:41.121Z,1.20
2019-04-27T10:38:11.048Z,1.40
2019-04-27T10:40:40.925Z,1.20
2019-04-27T10:43:10.772Z,1.30
2019-04-27T10:45:40.644Z,1.37
2019-04-27T10:48:10.515Z,1.20
2019-04-27T10:50:40.350Z,1.10
2019-04-27T10:53:10.209Z,1.20
2019-04-27T10:55:40.136Z,1.23
2019-04-27T10:58:10.003Z,1.17
2019-04-27T11:00:58.266Z,1.10
2019-04-27T11:03:46.393Z,1.10
2019-04-27T11:06:21.052Z,1.13
2019-04-27T11:08:51.154Z,1.20
2019-04-27T11:11:21.065Z,1.43
2019-04-27T11:13:50.929Z,1.70
2019-04-27T11:16:20.875Z,1.37
2019-04-27T11:18:50.876Z,1.43
2019-04-27T11:21:20.719Z,1.30
2019-04-27T11:23:50.646Z,1.27
2019-04-27T11:26:21.731Z,1.40
2019-04-27T11:28:51.671Z,1.27
2019-04-27T11:31:22.870Z,1.20
2019-04-27T11:33:53.587Z,1.00
2019-04-27T11:36:25.625Z,1.07
2019-04-27T11:38:57.258Z,1.23
2019-04-27T11:41:27.130Z,1.10
2019-04-27T11:43:56.986Z,1.30
2019-04-27T11:46:27.179Z,1.20
2019-04-27T11:48:58.406Z,1.13
2019-04-27T11:51:28.500Z,1.40
2019-04-27T11:53:58.487Z,1.07
2019-04-27T11:56:28.393Z,1.30
2019-04-27T11:58:58.393Z,1.80
2019-04-27T12:01:29.445Z,2.43
2019-04-27T12:03:59.326Z,2.80
2019-04-27T12:06:29.261Z,2.63
2019-04-27T12:08:59.120Z,3.00
2019-04-27T12:11:28.961Z,2.83
2019-04-27T12:13:58.836Z,2.30
2019-04-27T12:16:28.701Z,1.87
2019-04-27T12:18:58.633Z,2.10
2019-04-27T12:21:28.619Z,1.40
2019-04-27T12:23:58.546Z,1.77
2019-04-27T12:26:39.125Z,1.40
2019-04-27T12:29:10.725Z,1.83
2019-04-27T12:31:44.843Z,1.87
2019-04-27T12:34:13.928Z,2.07
2019-04-27T12:36:43.880Z,2.33
2019-04-27T12:39:15.624Z,2.00
2019-04-27T12:41:46.200Z,1.77
2019-04-27T12:44:16.212Z,1.53
2019-04-27T12:46:46.156Z,2.20
2019-04-27T12:49:17.576Z,2.50
2019-04-27T12:51:47.506Z,2.27
2019-04-27T12:54:21.758Z,3.00
2019-04-27T12:56:55.985Z,3.07
2019-04-27T12:59:44.246Z,1.40
2019-04-27T13:02:14.376Z,1.83
2019-04-27T13:04:44.257Z,1.10
2019-04-27T13:07:16.026Z,1.10
2019-04-27T13:09:46.218Z,1.00
2019-04-27T13:12:16.228Z,1.03
2019-04-27T13:14:46.175Z,1.17
2019-04-27T13:17:16.476Z,0.90
2019-04-27T13:19:46.541Z,1.20
2019-04-27T13:22:17.566Z,1.30
2019-04-27T13:24:47.440Z,1.00
2019-04-27T13:27:17.347Z,0.90
2019-04-27T13:29:47.270Z,1.30
2019-04-27T13:32:18.224Z,0.83
2019-04-27T13:34:48.132Z,1.30
2019-04-27T13:37:36.495Z,1.20
2019-04-27T13:40:09.638Z,1.50
2019-04-27T13:42:42.738Z,1.17
2019-04-27T13:45:16.484Z,1.10
2019-04-27T13:47:50.844Z,0.80
2019-04-27T13:50:28.127Z,0.80
2019-04-27T13:52:58.146Z,0.77
2019-04-27T13:55:27.994Z,0.70
2019-04-27T13:57:57.857Z,0.90
2019-04-27T14:00:27.772Z,0.77
2019-04-27T14:02:57.647Z,0.80
2019-04-27T14:05:27.594Z,1.33
2019-04-27T14:07:59.106Z,1.60
2019-04-27T14:10:29.059Z,1.60
2019-04-27T14:12:59.188Z,1.53
2019-04-27T14:15:29.282Z,1.40
2019-04-27T14:17:59.261Z,1.47
2019-04-27T14:20:29.557Z,1.13
2019-04-27T14:23:11.207Z,1.43
2019-04-27T14:25:41.125Z,1.40
2019-04-27T14:28:11.023Z,1.00
2019-04-27T14:30:40.959Z,1.30
2019-04-27T14:33:10.927Z,1.23
2019-04-27T14:35:40.854Z,1.27
2019-04-27T14:38:10.880Z,0.80
2019-04-27T14:40:40.815Z,1.00
2019-04-27T14:43:10.787Z,0.83
2019-04-27T14:45:40.677Z,1.03
2019-04-27T14:48:13.032Z,1.00
2019-04-27T14:50:42.933Z,1.10
2019-04-27T14:53:12.776Z,1.30
2019-04-27T14:55:42.721Z,1.10
2019-04-27T14:58:12.582Z,1.30
2019-04-27T15:00:42.420Z,1.20
2019-04-27T15:03:12.300Z,1.20
2019-04-27T15:05:43.485Z,1.20
2019-04-27T15:08:14.011Z,1.60
2019-04-27T15:10:43.975Z,1.47
2019-04-27T15:13:13.840Z,1.30
2019-04-27T15:15:44.950Z,1.60
2019-04-27T15:18:14.972Z,1.40
2019-04-27T15:20:46.670Z,1.43
2019-04-27T15:23:17.260Z,1.10
2019-04-27T15:25:47.314Z,1.20
2019-04-27T15:28:22.711Z,1.10
2019-04-27T15:31:03.741Z,1.10
2019-04-27T15:33:54.659Z,1.30
2019-04-27T15:36:28.249Z,1.70
2019-04-27T15:38:59.698Z,1.53
2019-04-27T15:41:31.623Z,1.60
2019-04-27T15:44:05.779Z,1.67
2019-04-27T15:46:34.971Z,1.50
2019-04-27T15:49:08.040Z,1.30
2019-04-27T15:51:38.239Z,1.63
2019-04-27T15:54:08.348Z,1.60
2019-04-27T15:56:38.282Z,1.37
2019-04-27T15:59:08.683Z,2.03
2019-04-27T16:01:39.568Z,2.67
2019-04-27T16:04:11.359Z,3.30
2019-04-27T16:06:45.390Z,3.00
2019-04-27T16:09:15.978Z,2.30
2019-04-27T16:11:50.314Z,2.50
2019-04-27T16:14:18.895Z,2.13
2019-04-27T16:16:49.018Z,2.20
2019-04-27T16:19:20.036Z,2.03
2019-04-27T16:21:54.242Z,1.70
2019-04-27T16:24:21.631Z,1.67
2019-04-27T16:26:55.924Z,1.80
2019-04-27T16:29:27.491Z,1.60
2019-04-27T16:31:54.803Z,1.93
2019-04-27T16:34:24.725Z,1.90
2019-04-27T16:36:56.209Z,1.90
2019-04-27T16:39:26.097Z,2.60
2019-04-27T16:41:56.011Z,2.47
2019-04-27T16:44:25.954Z,2.30
2019-04-27T16:46:55.879Z,2.20
2019-04-27T16:49:25.772Z,1.60
2019-04-27T16:51:55.709Z,0.93
2019-04-27T16:54:25.674Z,0.60
2019-04-27T16:57:03.210Z,0.87
2019-04-27T16:59:42.328Z,1.00
2019-04-27T17:01:58.710Z,0.90
2019-04-27T17:04:29.087Z,1.00
2019-04-27T17:07:00.112Z,1.20
2019-04-27T17:09:30.053Z,1.40
2019-04-27T17:12:00.004Z,0.90
2019-04-27T17:14:34.906Z,0.90
2019-04-27T17:17:11.904Z,0.80
2019-04-27T17:19:49.946Z,0.90
2019-04-27T17:22:20.209Z,1.30
2019-04-27T17:24:50.253Z,0.80
2019-04-27T17:27:28.738Z,1.00
2019-04-27T17:29:57.725Z,1.00
2019-04-27T17:32:33.818Z,1.00
2019-04-27T17:35:08.826Z,1.20
2019-04-27T17:37:38.286Z,0.90
2019-04-27T17:40:09.635Z,1.70
2019-04-27T17:42:39.633Z,1.30
2019-04-27T17:45:10.114Z,1.40
2019-04-27T17:47:40.051Z,1.47
2019-04-27T17:50:10.299Z,1.17
2019-04-27T17:52:40.157Z,1.13
2019-04-27T17:55:10.396Z,1.20
2019-04-27T17:57:41.494Z,1.03
2019-04-27T18:00:11.586Z,1.33
2019-04-27T18:02:42.623Z,1.30
2019-04-27T18:05:14.981Z,1.23
2019-04-27T18:07:45.188Z,1.43
2019-04-27T18:10:22.807Z,1.23
2019-04-27T18:12:50.051Z,1.30
2019-04-27T18:15:20.483Z,1.23
2019-04-27T18:17:52.338Z,1.37
2019-04-27T18:20:29.655Z,1.40
2019-04-27T18:23:01.269Z,1.60
2019-04-27T18:25:35.558Z,1.50
2019-04-27T18:28:19.386Z,1.90
2019-04-27T18:30:51.016Z,1.60
2019-04-27T18:33:20.950Z,1.90
2019-04-27T18:35:50.812Z,1.43
2019-04-27T18:38:20.678Z,1.77
2019-04-27T18:40:50.599Z,1.50
2019-04-27T18:43:20.468Z,1.43
2019-04-27T18:45:50.312Z,1.23
2019-04-27T18:48:21.817Z,1.67
2019-04-27T18:51:02.668Z,1.63
2019-04-27T18:53:34.386Z,1.60
2019-04-27T18:56:05.518Z,1.50
2019-04-27T18:58:35.571Z,2.00
2019-04-27T19:01:08.512Z,1.40
2019-04-27T19:03:39.882Z,1.70
2019-04-27T19:06:10.349Z,2.00
2019-04-27T19:08:40.346Z,1.67
2019-04-27T19:11:11.191Z,2.67
2019-04-27T19:13:43.416Z,2.53
2019-04-27T19:16:13.749Z,2.70
2019-04-27T19:18:45.336Z,2.27
2019-04-27T19:21:15.365Z,2.30
2019-04-27T19:23:49.185Z,2.27
2019-04-27T19:26:25.809Z,1.90
2019-04-27T19:29:15.286Z,2.30
2019-04-27T19:31:58.517Z,2.30
2019-04-27T19:34:30.397Z,2.10
2019-04-27T19:37:01.790Z,2.80
2019-04-27T19:39:31.835Z,2.33
2019-04-27T19:42:03.827Z,2.80
2019-04-27T19:44:35.168Z,2.33
2019-04-27T19:47:05.976Z,2.43
2019-04-27T19:49:36.074Z,2.63
2019-04-27T19:52:05.979Z,2.57
2019-04-27T19:54:37.342Z,2.73
2019-04-27T19:57:09.258Z,4.17
2019-04-27T19:59:42.260Z,6.07
2019-04-27T20:02:15.200Z,4.57
2019-04-27T20:04:48.223Z,3.63
2019-04-27T20:07:19.842Z,3.17
2019-04-27T20:09:52.784Z,3.27
2019-04-27T20:12:26.304Z,3.87
2019-04-27T20:14:57.062Z,3.37
2019-04-27T20:17:31.167Z,3.13
2019-04-27T20:20:01.674Z,3.00
2019-04-27T20:22:33.039Z,2.70
2019-04-27T20:25:08.001Z,3.33
2019-04-27T20:27:46.866Z,3.07
2019-04-27T20:30:13.856Z,4.10
2019-04-27T20:32:45.079Z,4.80
2019-04-27T20:35:15.059Z,3.90
2019-04-27T20:37:45.667Z,3.90
2019-04-27T20:40:15.824Z,6.23
2019-04-27T20:42:46.875Z,6.60
2019-04-27T20:45:17.337Z,3.83
2019-04-27T20:47:47.494Z,3.97
2019-04-27T20:50:18.394Z,3.73
2019-04-27T20:52:51.465Z,3.27
2019-04-27T20:55:22.113Z,6.43
2019-04-27T20:57:59.552Z,4.50
2019-04-27T21:00:25.307Z,3.10
2019-04-27T21:02:56.867Z,2.97
2019-04-27T21:05:31.032Z,3.17
2019-04-27T21:08:07.035Z,3.33
2019-04-27T21:10:37.164Z,2.90
2019-04-27T21:13:07.083Z,2.90
2019-04-27T21:15:37.008Z,3.00
2019-04-27T21:18:08.456Z,3.23
2019-04-27T21:20:38.855Z,2.80
2019-04-27T21:23:12.119Z,3.10
2019-04-27T21:25:44.247Z,2.77
2019-04-27T21:28:18.919Z,2.83
2019-04-27T21:30:49.183Z,2.67
2019-04-27T21:33:21.532Z,2.63
2019-04-27T21:35:53.450Z,2.47
2019-04-27T21:38:24.458Z,2.30
2019-04-27T21:40:54.317Z,2.53
2019-04-27T21:43:24.156Z,2.27
2019-04-27T21:45:54.013Z,2.20
2019-04-27T21:48:24.961Z,1.90
2019-04-27T21:50:55.747Z,2.13
2019-04-27T21:53:27.930Z,2.13
2019-04-27T21:56:02.748Z,2.17
2019-04-27T21:58:34.207Z,2.30
2019-04-27T22:01:18.265Z,1.80
2019-04-27T22:03:50.648Z,1.90
2019-04-27T22:06:21.327Z,1.80
2019-04-27T22:08:52.893Z,2.40
2019-04-27T22:11:25.313Z,2.10
2019-04-27T22:13:56.865Z,2.10
2019-04-27T22:16:26.926Z,2.30
2019-04-27T22:18:58.652Z,1.90
2019-04-27T22:21:31.658Z,2.10
2019-04-27T22:24:11.158Z,2.00
2019-04-27T22:26:42.705Z,2.10
2019-04-27T22:29:12.826Z,1.90
2019-04-27T22:31:43.272Z,1.57
2019-04-27T22:34:13.185Z,1.80
2019-04-27T22:36:43.183Z,2.23
2019-04-27T22:39:16.870Z,1.70
2019-04-27T22:41:51.515Z,3.10
2019-04-27T22:44:23.454Z,1.80
2019-04-27T22:46:55.355Z,2.03
2019-04-27T22:49:26.309Z,2.10
2019-04-27T22:51:56.166Z,2.00
2019-04-27T22:54:26.272Z,1.70
2019-04-27T22:56:57.906Z,1.60
2019-04-27T22:59:38.289Z,1.73
2019-04-27T23:02:11.460Z,1.43
2019-04-27T23:04:43.126Z,1.33
2019-04-27T23:07:13.059Z,1.50
2019-04-27T23:09:42.960Z,1.20
2019-04-27T23:12:12.956Z,1.63
2019-04-27T23:14:42.799Z,2.07
2019-04-27T23:17:20.150Z,1.60
2019-04-27T23:19:51.019Z,1.57
2019-04-27T23:22:21.417Z,1.20
2019-04-27T23:24:51.964Z,1.43
2019-04-27T23:27:22.048Z,1.33
2019-04-27T23:29:51.890Z,1.40
2019-04-27T23:32:23.718Z,1.63
2019-04-27T23:34:54.782Z,1.43
2019-04-27T23:37:24.713Z,1.43
2019-04-27T23:39:54.644Z,1.80
2019-04-27T23:42:24.505Z,1.90
2019-04-27T23:44:54.351Z,1.70
2019-04-27T23:47:24.221Z,1.83
2019-04-27T23:49:54.132Z,2.10
2019-04-27T23:52:41.956Z,1.70
2019-04-27T23:55:11.803Z,2.00
2019-04-27T23:57:41.665Z,1.97
